Terminal Aerodrome Forecast
Issued by NWS Memphis, TN

Home | Current Version | Previous Version | Text Only | Print | Product List | Glossary On
Versions: 1 2 3 4 5 6 7 8 9 10 11 12 13 14 15 16 17 18 19 20 21 22 23 24 25 26 27
000
FTUS44 KMEG 012320
TAFMEM
TAF
KMEM 012320Z 0200/0224 28012G20KT P6SM SCT015 OVC050
     FM020200 30016G24KT P6SM OVC030
     FM020600 32016G24KT P6SM OVC015
     FM021300 34007KT P6SM SCT025=

USA.gov is the U.S. government's official web portal to all federal, state and local government web resources and services.